Time;durP1;ratioP1;P1;durP2;ratioP2;P2;SDS_P1;SDS_P2;PMS_P1;PMS_P2;Temp;Humidity;BMP_temperature;BMP_pressure;BME280_temperature;BME280_humidity;BME280_pressure;Samples;Min_cycle;Max_cycle;Signal;HPM_P1;HPM_P2
2022/07/05 17:57:31;;;;;;;;;5.00;5.00;;;;;25.88;32.05;101800.00;5161493;27;45954;-70
2022/07/05 17:59:57;;;;;;;;;7.50;6.00;;;;;25.98;32.59;101807.56;5114349;27;45412;-68
2022/07/05 18:02:22;;;;;;;;;4.00;4.00;;;;;26.12;32.42;101806.91;5111116;27;45529;-67
2022/07/05 18:04:48;;;;;;;;;4.50;3.25;;;;;26.27;32.19;101812.50;5111323;27;45546;-70
2022/07/05 18:07:13;;;;;;;;;4.00;4.00;;;;;26.41;31.61;101805.56;5111230;27;46421;-67
2022/07/05 18:09:39;;;;;;;;;4.00;4.00;;;;;26.38;31.73;101778.81;5111285;27;45740;-68
2022/07/05 18:12:05;;;;;;;;;6.00;4.00;;;;;26.63;31.78;101812.63;5106340;27;45474;-65
2022/07/05 18:14:31;;;;;;;;;6.50;5.00;;;;;26.73;31.46;101815.72;5101347;27;45455;-65
2022/07/05 18:16:57;;;;;;;;;5.50;3.50;;;;;26.76;31.25;101803.00;5102080;27;46164;-66
2022/07/05 18:19:22;;;;;;;;;4.00;3.25;;;;;26.81;31.69;101813.53;5111528;27;45499;-63
2022/07/05 18:21:48;;;;;;;;;4.25;3.50;;;;;26.79;32.45;101816.31;5113653;27;45468;-64
2022/07/05 18:24:17;;;;;;;;;4.50;3.75;;;;;26.84;31.86;101818.78;5111398;27;45565;-66
2022/07/05 18:26:42;;;;;;;;;3.50;3.25;;;;;26.85;32.41;101815.97;5110776;27;46011;-68
2022/07/05 18:29:08;;;;;;;;;5.00;5.00;;;;;26.80;31.69;101807.28;5110981;27;45698;-68
2022/07/05 18:31:34;;;;;;;;;7.00;5.50;;;;;26.74;32.11;101794.16;5111194;27;45320;-66
2022/07/05 18:33:59;;;;;;;;;3.50;3.50;;;;;26.77;32.32;101812.81;5111439;27;45294;-66
2022/07/05 18:36:25;;;;;;;;;4.75;4.00;;;;;26.73;31.92;101808.53;5109732;27;46782;-68
2022/07/05 18:38:52;;;;;;;;;3.00;3.00;;;;;26.75;32.43;101819.22;5110833;27;45849;-67
2022/07/05 18:41:18;;;;;;;;;3.00;3.00;;;;;26.70;32.13;101821.25;5127219;27;45769;-71
2022/07/05 18:43:43;;;;;;;;;5.25;3.00;;;;;26.68;32.81;101824.00;5111657;27;45411;-71
2022/07/05 18:46:09;;;;;;;;;5.25;4.75;;;;;26.67;32.80;101827.63;5114009;27;46432;-68
2022/07/05 18:48:34;;;;;;;;;4.00;4.00;;;;;26.57;32.53;101812.91;5110360;27;45377;-70
2022/07/05 18:51:00;;;;;;;;;4.00;4.00;;;;;26.55;32.85;101818.38;5110875;27;45458;-70
2022/07/05 18:53:25;;;;;;;;;3.50;3.50;;;;;26.54;33.07;101821.13;5096617;27;45339;-70
2022/07/05 18:55:51;;;;;;;;;3.25;3.25;;;;;26.50;32.62;101817.66;5101169;27;46250;-71
2022/07/05 18:58:17;;;;;;;;;6.25;4.00;;;;;26.52;33.40;101836.41;5110150;27;45608;-69
2022/07/05 19:00:43;;;;;;;;;4.00;4.00;;;;;26.51;32.76;101835.53;5115238;27;45511;-69
2022/07/05 19:03:09;;;;;;;;;4.00;4.00;;;;;26.47;33.21;101847.38;5115470;27;45379;-70
2022/07/05 19:05:34;;;;;;;;;4.25;3.75;;;;;26.45;33.85;101846.56;5113112;27;45484;-71
2022/07/05 19:13:44;;;;;;;;;4.75;3.00;;;;;26.16;33.83;101840.72;5097399;27;45691;-67
2022/07/05 19:16:12;;;;;;;;;4.00;4.00;;;;;26.18;33.97;101871.06;5083885;27;46488;-66
2022/07/05 19:18:38;;;;;;;;;4.00;4.00;;;;;26.14;33.81;101882.03;5095800;27;45291;-68
2022/07/05 19:21:05;;;;;;;;;4.00;4.00;;;;;26.04;33.89;101875.34;5096415;27;45682;-71
2022/07/05 19:23:42;;;;;;;;;4.00;4.00;;;;;25.83;33.92;101852.97;5095590;27;45492;-72
2022/07/05 19:26:09;;;;;;;;;3.25;3.25;;;;;25.86;34.10;101872.50;5097933;27;45701;-69
2022/07/05 19:28:35;;;;;;;;;4.25;3.00;;;;;25.87;34.13;101895.75;5114419;27;45384;-71
2022/07/05 19:31:00;;;;;;;;;5.50;3.75;;;;;25.80;34.21;101905.84;5096417;27;45444;-71
2022/07/05 19:33:26;;;;;;;;;3.25;3.25;;;;;25.65;34.62;101882.38;5096506;27;45343;-70
2022/07/05 19:36:03;;;;;;;;;5.00;5.00;;;;;25.44;34.21;101857.31;5096235;27;45786;-70
2022/07/05 19:38:28;;;;;;;;;4.00;3.00;;;;;25.43;34.33;101877.03;5096427;27;45787;-72
2022/07/05 19:40:54;;;;;;;;;6.00;4.00;;;;;25.52;34.20;101907.94;5103684;27;45551;-70
2022/07/05 19:43:21;;;;;;;;;3.00;3.00;;;;;25.20;34.55;101863.69;5110130;27;45324;-69
2022/07/05 19:45:46;;;;;;;;;4.00;4.00;;;;;25.39;34.56;101907.59;5096015;27;46239;-71
2022/07/05 19:48:12;;;;;;;;;4.00;4.00;;;;;25.38;34.92;101919.25;5099747;27;45353;-74
2022/07/05 19:50:38;;;;;;;;;6.33;4.00;;;;;25.34;35.14;101920.31;5100796;27;45413;-71
2022/07/05 19:53:03;;;;;;;;;6.00;4.33;;;;;25.30;35.27;101930.31;5090118;27;45361;-71
2022/07/05 19:55:30;;;;;;;;;4.33;4.33;;;;;25.25;35.25;101921.59;5094540;27;45464;-71
2022/07/05 19:57:56;;;;;;;;;4.00;3.00;;;;;25.20;34.83;101923.56;5096255;27;45526;-69
2022/07/05 20:00:22;;;;;;;;;4.00;3.00;;;;;25.17;35.26;101934.38;5097874;27;45242;-72
2022/07/05 20:02:47;;;;;;;;;5.67;4.00;;;;;25.08;35.18;101932.94;5097355;27;45549;-72
2022/07/05 20:05:13;;;;;;;;;3.67;3.00;;;;;25.07;35.75;101944.59;5090999;27;45452;-71
2022/07/05 20:07:39;;;;;;;;;4.00;4.00;;;;;25.02;34.89;101938.53;5091159;27;45905;-69
2022/07/05 20:10:05;;;;;;;;;4.25;2.75;;;;;25.08;35.29;101953.50;5112832;27;45429;-71
2022/07/05 20:12:30;;;;;;;;;5.00;4.00;;;;;25.02;35.29;101954.63;5096907;27;45610;-69
2022/07/05 20:14:56;;;;;;;;;4.00;3.00;;;;;25.00;35.41;101959.16;5096814;27;47039;-71
2022/07/05 20:17:34;;;;;;;;;4.00;4.00;;;;;24.96;35.03;101968.25;5089558;27;45367;-68
2022/07/05 20:20:00;;;;;;;;;4.00;4.00;;;;;24.91;35.27;101970.25;5089069;27;45401;-65
2022/07/05 20:22:30;;;;;;;;;3.00;3.00;;;;;24.95;35.48;101983.47;5098729;27;45275;-72
2022/07/05 20:25:01;;;;;;;;;3.33;3.33;;;;;24.93;34.93;101984.47;5095858;27;46155;-69
2022/07/05 20:27:30;;;;;;;;;4.00;4.00;;;;;24.90;34.91;101990.81;5096045;27;45488;-71
2022/07/05 20:29:55;;;;;;;;;2.75;2.75;;;;;24.88;34.89;101994.47;5094720;27;45790;-67
2022/07/05 20:32:21;;;;;;;;;3.75;3.00;;;;;24.84;35.41;102007.13;5095670;27;45404;-69
2022/07/05 20:34:47;;;;;;;;;5.00;4.00;;;;;24.83;34.96;102008.06;5094940;27;45476;-71
2022/07/05 20:37:15;;;;;;;;;3.33;3.33;;;;;24.80;35.03;102007.31;5097756;27;45835;-72
2022/07/05 20:39:41;;;;;;;;;4.67;3.00;;;;;24.74;35.39;102019.97;5099941;27;45424;-69
2022/07/05 20:42:07;;;;;;;;;3.00;3.00;;;;;24.74;35.00;102027.16;5101164;27;45298;-70
2022/07/05 20:44:34;;;;;;;;;4.67;3.33;;;;;24.62;34.98;102017.75;5100111;27;46608;-69
2022/07/05 20:47:01;;;;;;;;;4.00;4.00;;;;;24.70;35.76;102036.22;5100699;27;45566;-68
2022/07/05 20:49:27;;;;;;;;;3.67;3.00;;;;;24.64;34.97;102031.97;5094391;27;45451;-70
2022/07/05 20:51:52;;;;;;;;;3.00;3.00;;;;;24.58;35.37;102037.53;5096457;27;45393;-70
2022/07/05 20:54:18;;;;;;;;;2.00;2.00;;;;;24.54;34.96;102030.56;5080103;27;46097;-70
2022/07/05 20:56:43;;;;;;;;;3.33;3.00;;;;;24.54;35.66;102033.25;5088258;27;45682;-72
2022/07/05 20:59:09;;;;;;;;;2.00;2.00;;;;;24.53;35.85;102043.06;5094501;27;45496;-67
2022/07/05 21:01:34;;;;;;;;;4.00;4.00;;;;;24.51;35.56;102044.94;5094956;27;45428;-67
2022/07/05 21:04:00;;;;;;;;;2.33;2.33;;;;;24.40;35.01;102035.50;5094691;27;46165;-68
2022/07/05 21:06:26;;;;;;;;;4.00;2.33;;;;;24.31;34.91;102037.56;5094166;27;45443;-71
2022/07/05 21:08:52;;;;;;;;;4.00;3.00;;;;;24.38;35.23;102062.34;5095176;27;45470;-71
2022/07/05 21:11:18;;;;;;;;;3.00;3.00;;;;;24.31;35.43;102064.34;5095381;27;45689;-70
2022/07/05 21:13:43;;;;;;;;;3.33;3.00;;;;;24.21;34.91;102068.28;5094631;27;45520;-69
2022/07/05 21:16:09;;;;;;;;;3.00;3.00;;;;;24.17;35.14;102071.97;5094370;27;45409;-70
2022/07/05 21:18:36;;;;;;;;;2.00;2.00;;;;;24.05;34.86;102067.03;5110154;27;45700;-68
2022/07/05 21:21:01;;;;;;;;;3.00;3.00;;;;;24.03;34.99;102082.25;5094508;27;45548;-69
2022/07/05 21:23:27;;;;;;;;;3.00;3.00;;;;;23.99;34.58;102084.19;5092461;27;46196;-71
2022/07/05 21:25:53;;;;;;;;;3.00;3.00;;;;;23.90;34.69;102071.09;5094150;27;45354;-69
2022/07/05 21:28:18;;;;;;;;;2.00;2.00;;;;;23.85;34.88;102079.28;5097699;27;45440;-70
2022/07/05 21:30:45;;;;;;;;;3.67;3.67;;;;;23.80;35.16;102094.59;5099667;27;45494;-69
2022/07/05 21:33:15;;;;;;;;;4.00;2.33;;;;;23.55;35.28;102057.00;5109609;27;47735;-71
2022/07/05 21:35:40;;;;;;;;;3.00;3.00;;;;;23.73;35.44;102086.75;5094668;27;45541;-69
2022/07/05 21:38:12;;;;;;;;;2.00;2.00;;;;;23.70;35.77;102093.09;5085687;27;45541;-69
2022/07/05 21:40:38;;;;;;;;;2.33;2.33;;;;;23.64;35.78;102091.50;5091301;27;45488;-69
2022/07/05 21:43:03;;;;;;;;;3.00;3.00;;;;;23.62;35.60;102101.34;5094570;27;45451;-69
2022/07/05 21:45:30;;;;;;;;;5.00;3.00;;;;;23.49;35.72;102081.25;5091277;27;45353;-72
2022/07/05 21:47:55;;;;;;;;;3.00;3.00;;;;;23.39;35.67;102075.31;5091496;27;45455;-70
2022/07/05 21:50:21;;;;;;;;;2.00;2.00;;;;;23.56;36.10;102106.00;5092236;27;46702;-70
2022/07/05 21:52:47;;;;;;;;;3.00;3.00;;;;;23.10;35.74;102027.22;5086346;27;45780;-73
2022/07/05 21:55:13;;;;;;;;;3.00;2.00;;;;;23.42;36.23;102099.31;5094628;27;45503;-72
2022/07/05 21:57:38;;;;;;;;;2.00;2.00;;;;;23.41;36.15;102107.38;5095476;27;45688;-68
2022/07/05 22:05:47;;;;;;;;;3.00;3.00;;;;;23.29;36.67;102113.94;5090414;27;45597;-69
2022/07/05 22:08:18;;;;;;;;;4.00;3.00;;;;;23.17;36.90;102100.94;5090689;27;45421;-68
2022/07/05 22:10:47;;;;;;;;;5.00;3.00;;;;;22.98;37.02;102082.75;5106114;27;45587;-66
2022/07/05 22:13:13;;;;;;;;;3.00;3.00;;;;;22.91;36.96;102074.94;5091981;27;45995;-70
2022/07/05 22:15:39;;;;;;;;;4.33;3.00;;;;;23.24;36.79;102143.47;5090830;27;45869;-69
2022/07/05 22:18:04;;;;;;;;;3.00;3.00;;;;;23.22;37.18;102137.31;5091517;27;45417;-67
2022/07/05 22:20:39;;;;;;;;;3.00;3.00;;;;;23.22;37.47;102150.66;5094757;27;45749;-72
2022/07/05 22:23:05;;;;;;;;;2.67;2.67;;;;;23.22;37.26;102149.78;5095705;27;45515;-69
2022/07/05 22:25:31;;;;;;;;;2.67;2.67;;;;;23.15;37.20;102140.19;5092849;27;45554;-65
2022/07/05 22:27:56;;;;;;;;;3.00;3.00;;;;;22.85;37.46;102100.91;5091368;27;45416;-67
2022/07/05 22:30:22;;;;;;;;;5.33;3.33;;;;;22.96;37.46;102123.78;5094618;27;45570;-69
2022/07/05 22:32:51;;;;;;;;;3.00;3.00;;;;;23.03;37.65;102136.06;5092768;27;46297;-65
2022/07/05 22:35:17;;;;;;;;;3.00;3.00;;;;;23.01;37.28;102144.13;5091898;27;45840;-66
2022/07/05 22:37:43;;;;;;;;;3.67;3.33;;;;;22.93;37.84;102137.22;5091654;27;45655;-66
2022/07/05 22:40:09;;;;;;;;;5.00;4.00;;;;;22.99;37.78;102159.34;5091988;27;46443;-66
2022/07/05 22:42:49;;;;;;;;;4.00;3.00;;;;;22.75;37.94;102122.56;5091450;27;46494;-69
2022/07/05 22:45:15;;;;;;;;;3.00;3.00;;;;;22.69;38.05;102120.94;5098431;27;45749;-68
2022/07/05 22:47:40;;;;;;;;;2.00;2.00;;;;;22.88;38.17;102150.72;5098019;27;46339;-71
2022/07/05 22:50:06;;;;;;;;;2.67;2.67;;;;;22.88;38.30;102163.19;5098148;27;45415;-69
2022/07/05 22:52:38;;;;;;;;;4.00;3.00;;;;;22.60;38.49;102123.84;5092772;27;47948;-69
2022/07/05 22:55:04;;;;;;;;;3.33;3.33;;;;;22.57;38.77;102130.16;5094623;27;45445;-70
2022/07/05 22:57:30;;;;;;;;;2.67;2.67;;;;;22.68;38.70;102159.22;5093764;27;45698;-69
2022/07/05 22:59:56;;;;;;;;;3.00;3.00;;;;;22.69;38.80;102158.34;5099752;27;45867;-71
2022/07/05 23:02:21;;;;;;;;;3.00;3.00;;;;;22.72;38.82;102176.06;5096648;27;45929;-69
2022/07/05 23:04:51;;;;;;;;;5.00;3.00;;;;;22.73;39.14;102188.50;5097040;27;45431;-68
2022/07/05 23:07:16;;;;;;;;;4.00;4.00;;;;;22.70;39.31;102178.75;5096218;27;45353;-71
2022/07/05 23:09:42;;;;;;;;;4.67;4.00;;;;;22.56;38.85;102170.22;5096707;27;45775;-71
2022/07/05 23:12:07;;;;;;;;;3.00;3.00;;;;;22.55;39.41;102173.84;5096699;27;45800;-71
2022/07/05 23:14:33;;;;;;;;;3.00;3.00;;;;;22.54;39.36;102169.38;5096289;27;45464;-70
2022/07/05 23:16:59;;;;;;;;;2.33;2.33;;;;;22.59;39.53;102178.16;5096660;27;45353;-68
2022/07/05 23:19:24;;;;;;;;;3.00;3.00;;;;;22.58;39.60;102184.44;5096274;27;45529;-69
2022/07/05 23:21:50;;;;;;;;;4.33;3.00;;;;;22.52;39.51;102184.56;5096135;27;45522;-70
2022/07/05 23:26:59;;;;;;;;;3.00;3.00;;;;;22.41;39.90;102183.06;5096034;27;45483;-69
2022/07/05 23:29:25;;;;;;;;;4.67;4.00;;;;;22.34;39.83;102176.09;5096919;27;45339;-71
2022/07/05 23:31:51;;;;;;;;;2.00;2.00;;;;;22.37;40.08;102189.38;5096737;27;46135;-67
2022/07/05 23:34:17;;;;;;;;;3.00;3.00;;;;;22.39;40.15;102194.69;5096690;27;45465;-71
2022/07/05 23:36:42;;;;;;;;;2.33;2.33;;;;;22.32;40.30;102180.59;5097357;27;45415;-71
2022/07/05 23:39:08;;;;;;;;;4.00;3.67;;;;;22.35;40.14;102193.91;5096948;27;45351;-69
2022/07/05 23:41:34;;;;;;;;;4.00;3.33;;;;;22.30;40.29;102187.75;5096530;27;46110;-69
2022/07/05 23:44:07;;;;;;;;;3.33;3.33;;;;;22.27;40.25;102193.19;5097059;27;45502;-70
2022/07/05 23:46:32;;;;;;;;;2.33;2.33;;;;;22.17;40.56;102172.94;5100064;27;45319;-70
2022/07/05 23:48:58;;;;;;;;;5.67;3.33;;;;;22.22;40.64;102193.28;5096998;27;46105;-70
2022/07/05 23:51:23;;;;;;;;;4.33;3.00;;;;;22.07;40.72;102172.28;5097046;27;45414;-69
2022/07/05 23:53:49;;;;;;;;;3.33;3.33;;;;;22.10;40.90;102182.88;5082987;27;45362;-70
2022/07/05 23:56:16;;;;;;;;;4.00;4.00;;;;;22.16;41.14;102197.84;5112416;27;45467;-68
2022/07/05 23:58:42;;;;;;;;;3.00;3.00;;;;;22.13;41.29;102192.59;5096541;27;45519;-68
